createdAt,value
2023-05-02T00:00:37.540Z,93099.22
2023-05-02T00:05:41.620Z,93103.88
2023-05-02T00:10:46.272Z,93108.44
2023-05-02T00:15:50.374Z,93096.22
2023-05-02T00:20:54.422Z,93112.47
2023-05-02T00:25:58.177Z,93104.13
2023-05-02T00:31:02.571Z,93104.00
2023-05-02T00:36:07.718Z,93103.88
2023-05-02T00:41:11.630Z,93083.19
2023-05-02T00:46:15.846Z,93079.69
2023-05-02T00:51:20.085Z,93084.78
2023-05-02T00:56:23.980Z,93083.25
2023-05-02T01:01:30.460Z,93085.56
2023-05-02T01:06:42.771Z,93078.06
2023-05-02T01:11:57.765Z,93079.63
2023-05-02T01:17:05.645Z,93061.59
2023-05-02T01:22:11.549Z,93049.47
2023-05-02T01:27:31.975Z,93058.72
2023-05-02T01:32:40.709Z,93057.56
2023-05-02T01:37:46.471Z,93057.94
2023-05-02T01:42:53.216Z,93043.84
2023-05-02T01:47:59.470Z,93039.50
2023-05-02T01:53:05.285Z,93031.69
2023-05-02T01:58:09.931Z,93030.13
2023-05-02T02:03:15.505Z,93024.38
2023-05-02T02:08:20.813Z,93031.88
2023-05-02T02:13:36.081Z,93017.06
2023-05-02T02:18:40.779Z,93027.63
2023-05-02T02:23:48.572Z,93026.88
2023-05-02T02:28:53.884Z,93018.56
2023-05-02T02:33:57.633Z,93011.94
2023-05-02T02:39:17.722Z,93010.69
2023-05-02T02:44:34.870Z,93011.53
2023-05-02T02:49:52.048Z,93008.41
2023-05-02T02:55:11.928Z,93000.72
2023-05-02T03:00:26.118Z,93006.69
2023-05-02T03:05:31.657Z,92998.66
2023-05-02T03:10:36.338Z,92987.56
2023-05-02T03:15:42.832Z,92990.13
2023-05-02T03:20:48.344Z,92974.38
2023-05-02T03:25:52.022Z,92978.84
2023-05-02T03:31:02.560Z,92970.78
2023-05-02T03:36:10.171Z,92986.53
2023-05-02T03:41:15.026Z,92979.22
2023-05-02T03:46:20.776Z,92960.63
2023-05-02T03:51:25.324Z,92978.63
2023-05-02T03:56:32.800Z,92979.13
2023-05-02T04:01:53.100Z,92996.28
2023-05-02T04:07:06.415Z,92991.25
2023-05-02T04:12:11.026Z,92999.31
2023-05-02T04:17:19.625Z,92997.97
2023-05-02T04:22:27.932Z,92985.25
2023-05-02T04:27:39.073Z,93004.53
2023-05-02T04:32:49.204Z,93014.88
2023-05-02T04:37:53.618Z,93011.19
2023-05-02T04:42:59.143Z,93017.25
2023-05-02T04:48:09.497Z,93017.09
2023-05-02T04:53:16.442Z,93025.31
2023-05-02T04:58:21.123Z,93021.97
2023-05-02T05:03:37.125Z,93035.53
2023-05-02T05:08:46.006Z,93033.75
2023-05-02T05:13:53.165Z,93036.75
2023-05-02T05:18:58.380Z,93045.69
2023-05-02T05:24:03.843Z,93042.22
2023-05-02T05:29:09.232Z,93051.16
2023-05-02T05:34:19.385Z,93053.84
2023-05-02T05:39:26.081Z,93064.81
2023-05-02T05:44:32.991Z,93054.16
2023-05-02T05:49:38.939Z,93058.22
2023-05-02T05:54:47.319Z,93044.06
2023-05-02T05:59:51.483Z,93042.28
2023-05-02T06:04:55.578Z,93040.50
2023-05-02T06:10:02.326Z,93039.44
2023-05-02T06:15:09.283Z,93052.03
2023-05-02T06:20:14.624Z,93053.31
2023-05-02T06:25:19.542Z,93053.00
2023-05-02T06:30:23.950Z,93051.59
2023-05-02T06:35:27.871Z,93048.59
2023-05-02T06:40:32.526Z,93053.66
2023-05-02T06:45:36.968Z,93053.41
2023-05-02T06:50:42.021Z,93051.13
2023-05-02T06:55:48.916Z,93042.94
2023-05-02T07:00:53.106Z,93040.16
2023-05-02T07:05:56.812Z,93049.06
2023-05-02T07:11:01.767Z,93034.97
2023-05-02T07:16:06.781Z,93027.19
2023-05-02T07:21:10.926Z,93028.47
2023-05-02T07:26:14.592Z,93013.06
2023-05-02T07:31:19.314Z,93013.81
2023-05-02T07:36:23.178Z,93013.66
2023-05-02T07:41:27.226Z,93010.28
2023-05-02T07:46:32.002Z,92990.03
2023-05-02T07:51:36.762Z,92992.47
2023-05-02T07:56:41.545Z,92986.16
2023-05-02T08:01:45.825Z,92994.84
2023-05-02T08:06:50.543Z,92997.00
2023-05-02T08:11:55.422Z,92980.53
2023-05-02T08:17:01.871Z,92985.41
2023-05-02T08:22:09.168Z,92993.44
2023-05-02T08:27:16.135Z,92993.63
2023-05-02T08:32:20.125Z,93011.28
2023-05-02T08:37:25.489Z,92990.75
2023-05-02T08:42:34.095Z,92998.75
2023-05-02T08:47:41.895Z,92992.72
2023-05-02T08:52:48.149Z,92987.75
2023-05-02T08:57:52.438Z,92996.50
2023-05-02T09:03:08.704Z,92998.03
2023-05-02T09:08:14.610Z,92993.81
2023-05-02T09:13:38.986Z,92991.06
2023-05-02T09:18:50.535Z,92998.03
2023-05-02T09:24:00.149Z,92987.66
2023-05-02T09:29:05.983Z,92990.31
2023-05-02T09:34:15.250Z,92968.09
2023-05-02T09:39:25.817Z,92971.13
2023-05-02T09:44:39.673Z,92958.75
2023-05-02T09:49:46.481Z,92955.75
2023-05-02T09:54:53.195Z,92956.22
2023-05-02T09:59:58.164Z,92956.03
2023-05-02T10:05:05.094Z,92955.66
2023-05-02T10:10:15.625Z,92951.63
2023-05-02T10:15:24.836Z,92953.56
2023-05-02T10:20:37.885Z,92961.34
2023-05-02T10:25:42.979Z,92957.41
2023-05-02T10:30:51.928Z,92949.28
2023-05-02T10:35:56.385Z,92950.81
2023-05-02T10:41:06.785Z,92944.44
2023-05-02T10:46:34.285Z,92956.03
2023-05-02T10:51:44.259Z,92944.19
2023-05-02T10:57:00.390Z,92943.47
2023-05-02T11:02:07.069Z,92948.94
2023-05-02T11:07:11.136Z,92956.91
2023-05-02T11:12:48.972Z,92971.16
2023-05-02T11:18:12.694Z,93003.34
2023-05-02T11:23:17.148Z,93014.09
2023-05-02T11:28:50.780Z,93032.38
2023-05-02T11:34:05.022Z,93035.78
2023-05-02T11:39:22.158Z,93019.78
2023-05-02T11:44:26.558Z,93010.22
2023-05-02T11:49:52.184Z,93009.19
2023-05-02T13:03:24.759Z,92848.28
2023-05-02T13:08:28.571Z,92862.72
2023-05-02T13:13:33.861Z,92861.53
2023-05-02T13:18:37.631Z,92850.63
2023-05-02T13:23:44.579Z,92829.16
2023-05-02T13:28:47.976Z,92824.06
2023-05-02T13:33:52.361Z,92833.66
2023-05-02T13:38:59.613Z,92764.34
2023-05-02T13:44:05.401Z,92799.44
2023-05-02T13:49:09.303Z,92817.28
2023-05-02T13:54:12.932Z,92814.84
2023-05-02T13:59:16.371Z,92812.09
2023-05-02T14:04:21.554Z,92830.94
2023-05-02T14:09:25.769Z,92873.84
2023-05-02T14:14:29.524Z,92878.22
2023-05-02T14:19:33.145Z,92875.19
2023-05-02T14:24:36.749Z,92907.31
2023-05-02T14:29:41.232Z,92903.84
2023-05-02T14:34:52.393Z,92913.56
2023-05-02T14:39:56.814Z,92866.22
2023-05-02T14:45:02.578Z,92873.56
2023-05-02T14:50:07.114Z,92860.41
2023-05-02T14:55:11.091Z,92824.63
2023-05-02T15:00:16.522Z,92858.41
2023-05-02T15:05:20.270Z,92820.63
2023-05-02T15:10:24.049Z,92787.00
2023-05-02T15:15:29.849Z,92778.38
2023-05-02T15:20:33.114Z,92846.66
2023-05-02T15:25:37.234Z,92764.13
2023-05-02T15:30:40.859Z,92713.59
2023-05-02T15:35:56.793Z,92773.13
2023-05-02T15:41:01.445Z,92659.53
2023-05-02T15:46:05.373Z,92723.31
2023-05-02T15:51:11.318Z,92779.59
2023-05-02T15:56:16.030Z,92756.22
2023-05-02T16:01:21.562Z,92786.28
2023-05-02T16:06:25.893Z,92771.13
2023-05-02T16:11:29.105Z,92780.44
2023-05-02T16:16:34.441Z,92788.25
2023-05-02T16:21:37.588Z,92755.56
2023-05-02T16:26:41.197Z,92766.84
2023-05-02T16:31:45.256Z,92773.88
2023-05-02T16:36:48.977Z,92786.88
2023-05-02T16:41:52.844Z,92748.81
2023-05-02T16:46:57.011Z,92786.25
2023-05-02T16:52:00.610Z,92796.72
2023-05-02T16:57:04.973Z,92776.97
2023-05-02T17:02:09.223Z,92801.59
2023-05-02T17:07:13.384Z,92829.81
2023-05-02T17:12:22.708Z,92840.81
2023-05-02T17:17:26.711Z,92847.84
2023-05-02T17:22:31.133Z,92856.84
2023-05-02T17:28:11.377Z,92868.28
2023-05-02T17:33:15.329Z,92866.09
2023-05-02T17:38:19.690Z,92869.25
2023-05-02T17:43:23.669Z,92877.47
2023-05-02T17:48:28.188Z,92897.06
2023-05-02T17:53:32.398Z,92903.31
2023-05-02T17:58:36.641Z,92905.28
2023-05-02T18:03:40.474Z,92910.75
2023-05-02T18:08:46.074Z,92927.91
2023-05-02T18:13:50.073Z,92916.91
2023-05-02T18:18:54.297Z,92914.16
2023-05-02T18:23:58.283Z,92908.78
2023-05-02T18:29:02.504Z,92929.16
2023-05-02T18:34:06.411Z,92934.63
2023-05-02T18:39:10.623Z,92933.47
2023-05-02T18:44:14.705Z,92927.66
2023-05-02T18:49:19.122Z,92938.56
2023-05-02T18:54:28.018Z,92911.75
2023-05-02T18:59:32.335Z,92935.47
2023-05-02T19:04:35.440Z,92961.22
2023-05-02T19:09:40.677Z,92971.00
2023-05-02T19:14:45.150Z,92969.41
2023-05-02T19:19:49.376Z,92965.91
2023-05-02T19:24:53.822Z,92986.19
2023-05-02T19:29:58.942Z,92982.72
2023-05-02T19:35:04.669Z,92989.75
2023-05-02T19:40:09.113Z,92991.31
2023-05-02T19:45:14.049Z,93002.25
2023-05-02T19:50:18.102Z,92994.84
2023-05-02T19:55:22.093Z,93011.97
2023-05-02T20:00:26.254Z,93000.28
2023-05-02T20:05:29.481Z,93011.59
2023-05-02T20:10:34.046Z,93011.19
2023-05-02T20:15:37.697Z,93019.72
2023-05-02T20:20:41.953Z,93017.03
2023-05-02T20:25:45.873Z,93020.16
2023-05-02T20:30:50.195Z,93017.03
2023-05-02T20:35:56.605Z,93029.88
2023-05-02T20:41:01.081Z,93024.41
2023-05-02T20:46:13.667Z,93025.19
2023-05-02T20:51:17.343Z,93020.91
2023-05-02T20:56:21.344Z,93041.19
2023-05-02T21:01:27.045Z,93031.47
2023-05-02T21:06:34.352Z,93031.81
2023-05-02T21:11:38.811Z,93030.28
2023-05-02T21:16:42.720Z,93034.97
2023-05-02T21:21:46.722Z,93029.50
2023-05-02T21:26:50.796Z,93023.66
2023-05-02T21:31:54.905Z,93014.69
2023-05-02T21:36:59.017Z,93023.66
2023-05-02T21:42:02.900Z,93035.31
2023-05-02T21:47:06.832Z,93031.81
2023-05-02T21:52:10.510Z,93033.00
2023-05-02T21:57:14.480Z,93024.03
2023-05-02T22:02:18.508Z,93040.00
2023-05-02T22:07:22.547Z,93042.34
2023-05-02T22:12:27.711Z,93040.00
2023-05-02T22:17:33.034Z,93034.16
2023-05-02T22:22:37.287Z,93036.50
2023-05-02T22:27:41.446Z,93034.19
2023-05-02T22:32:45.405Z,93035.72
2023-05-02T22:37:49.973Z,93035.69
2023-05-02T22:42:53.788Z,93034.94
2023-05-02T22:47:57.637Z,93027.53
2023-05-02T22:53:04.299Z,93011.53
2023-05-02T22:58:08.631Z,93013.50
2023-05-02T23:03:12.857Z,93017.78
2023-05-02T23:08:16.633Z,93013.53
2023-05-02T23:13:20.577Z,93003.75
2023-05-02T23:18:24.562Z,92997.13
2023-05-02T23:23:28.422Z,92993.63
2023-05-02T23:28:32.014Z,92982.31
2023-05-02T23:33:36.340Z,92990.53
2023-05-02T23:38:41.683Z,92988.56
2023-05-02T23:43:45.391Z,92984.66
2023-05-02T23:48:49.724Z,92977.28
2023-05-02T23:53:53.632Z,92969.84
2023-05-02T23:58:56.757Z,92966.75
